createdAt,value
2022-12-17T00:02:07.819Z,97508.28
2022-12-17T00:04:53.167Z,97510.78
2022-12-17T00:07:39.026Z,97513.22
2022-12-17T00:10:24.271Z,97516.34
2022-12-17T00:13:09.403Z,97519.63
2022-12-17T00:15:55.180Z,97513.75
2022-12-17T00:18:41.831Z,97522.59
2022-12-17T00:21:27.626Z,97518.50
2022-12-17T00:24:13.194Z,97519.56
2022-12-17T00:26:58.580Z,97524.66
2022-12-17T00:29:44.022Z,97532.22
2022-12-17T00:32:29.130Z,97532.13
2022-12-17T00:35:14.493Z,97533.00
2022-12-17T00:38:04.262Z,97535.69
2022-12-17T00:40:50.530Z,97543.59
2022-12-17T00:43:36.121Z,97546.22
2022-12-17T00:46:22.205Z,97541.03
2022-12-17T00:49:07.630Z,97541.03
2022-12-17T00:51:53.060Z,97547.63
2022-12-17T00:54:38.541Z,97554.13
2022-12-17T00:57:25.692Z,97555.66
2022-12-17T01:00:11.192Z,97549.94
2022-12-17T01:02:56.678Z,97559.53
2022-12-17T01:05:42.131Z,97563.19
2022-12-17T01:08:27.624Z,97566.59
2022-12-17T01:11:16.998Z,97569.97
2022-12-17T01:14:02.101Z,97568.31
2022-12-17T01:16:47.496Z,97565.81
2022-12-17T01:19:32.601Z,97575.06
2022-12-17T01:22:17.947Z,97569.13
2022-12-17T01:25:03.337Z,97576.81
2022-12-17T01:27:48.698Z,97573.41
2022-12-17T01:30:34.146Z,97577.72
2022-12-17T01:33:22.873Z,97583.00
2022-12-17T01:36:08.380Z,97585.75
2022-12-17T01:38:53.626Z,97583.25
2022-12-17T01:41:39.012Z,97590.88
2022-12-17T01:44:43.336Z,97587.47
2022-12-17T01:47:28.596Z,97591.72
2022-12-17T01:50:13.983Z,97591.63
2022-12-17T01:52:59.464Z,97599.31
2022-12-17T01:55:44.742Z,97604.50
2022-12-17T01:58:30.286Z,97594.47
2022-12-17T02:01:16.501Z,97603.13
2022-12-17T02:04:01.906Z,97603.19
2022-12-17T02:06:47.164Z,97603.13
2022-12-17T02:09:32.907Z,97602.34
2022-12-17T02:12:21.458Z,97598.88
2022-12-17T02:15:08.238Z,97598.91
2022-12-17T02:17:59.146Z,97594.59
2022-12-17T02:20:49.565Z,97599.84
2022-12-17T02:23:56.560Z,97601.66
2022-12-17T02:26:55.599Z,97603.41
2022-12-17T02:29:41.172Z,97606.03
2022-12-17T02:32:26.454Z,97603.50
2022-12-17T02:35:11.755Z,97606.13
2022-12-17T02:37:56.900Z,97608.81
2022-12-17T02:40:42.415Z,97610.56
2022-12-17T02:43:27.639Z,97604.53
2022-12-17T02:46:13.044Z,97602.75
2022-12-17T02:48:58.523Z,97606.84
2022-12-17T02:51:43.824Z,97611.94
2022-12-17T02:54:29.081Z,97617.91
2022-12-17T02:57:14.289Z,97618.03
2022-12-17T02:59:59.541Z,97619.06
2022-12-17T03:02:44.918Z,97629.34
2022-12-17T03:05:46.056Z,97634.63
2022-12-17T03:08:31.451Z,97633.09
2022-12-17T03:11:16.961Z,97636.41
2022-12-17T03:14:02.521Z,97632.91
2022-12-17T03:16:47.977Z,97633.63
2022-12-17T03:19:33.257Z,97638.72
2022-12-17T03:22:18.852Z,97637.84
2022-12-17T03:25:04.399Z,97641.13
2022-12-17T03:27:50.028Z,97635.19
2022-12-17T03:30:36.862Z,97636.78
2022-12-17T03:33:23.610Z,97633.44
2022-12-17T03:36:11.575Z,97635.19
2022-12-17T03:38:57.095Z,97632.69
2022-12-17T03:41:42.449Z,97635.41
2022-12-17T03:44:27.719Z,97628.88
2022-12-17T03:47:12.964Z,97634.91
2022-12-17T03:49:58.374Z,97637.41
2022-12-17T03:52:45.726Z,97638.25
2022-12-17T03:55:30.973Z,97644.06
2022-12-17T03:58:16.507Z,97647.47
2022-12-17T04:01:01.655Z,97651.78
2022-12-17T04:03:47.141Z,97656.00
2022-12-17T04:06:32.632Z,97653.53
2022-12-17T04:09:18.030Z,97645.94
2022-12-17T04:12:03.420Z,97648.63
2022-12-17T04:14:48.621Z,97650.50
2022-12-17T04:17:34.126Z,97653.91
2022-12-17T04:20:19.373Z,97658.16
2022-12-17T04:23:04.633Z,97671.84
2022-12-17T04:25:49.901Z,97660.88
2022-12-17T04:28:34.981Z,97664.94
2022-12-17T04:31:20.509Z,97660.66
2022-12-17T04:34:05.939Z,97665.75
2022-12-17T04:36:51.129Z,97669.78
2022-12-17T04:39:36.476Z,97679.91
2022-12-17T04:42:21.939Z,97674.91
2022-12-17T04:45:07.203Z,97683.53
2022-12-17T04:47:52.521Z,97683.69
2022-12-17T04:50:37.863Z,97676.09
2022-12-17T04:53:23.756Z,97693.03
2022-12-17T04:56:08.958Z,97687.88
2022-12-17T04:58:54.281Z,97699.66
2022-12-17T05:01:39.783Z,97700.44
2022-12-17T05:04:25.237Z,97688.59
2022-12-17T05:07:10.615Z,97693.81
2022-12-17T05:09:56.004Z,97699.03
2022-12-17T05:12:41.482Z,97698.34
2022-12-17T05:15:26.918Z,97697.53
2022-12-17T05:18:12.424Z,97709.47
2022-12-17T05:20:57.721Z,97705.25
2022-12-17T05:23:43.134Z,97706.00
2022-12-17T05:26:39.440Z,97702.59
2022-12-17T05:29:24.695Z,97704.25
2022-12-17T05:32:09.933Z,97708.44
2022-12-17T05:34:55.378Z,97709.31
2022-12-17T05:37:42.580Z,97722.91
2022-12-17T05:40:27.686Z,97722.03
2022-12-17T05:43:14.137Z,97730.44
2022-12-17T05:45:59.476Z,97723.72
2022-12-17T05:48:44.618Z,97728.09
2022-12-17T05:51:32.472Z,97728.13
2022-12-17T05:54:19.784Z,97728.13
2022-12-17T05:57:05.040Z,97737.50
2022-12-17T05:59:52.863Z,97740.91
2022-12-17T06:02:38.280Z,97732.38
2022-12-17T06:05:23.956Z,97736.31
2022-12-17T06:08:09.387Z,97741.53
2022-12-17T06:10:54.598Z,97746.13
2022-12-17T06:13:39.975Z,97741.91
2022-12-17T06:16:25.185Z,97744.50
2022-12-17T06:19:10.591Z,97751.31
2022-12-17T06:21:55.774Z,97748.72
2022-12-17T06:24:45.668Z,97750.59
2022-12-17T06:27:31.442Z,97752.34
2022-12-17T06:30:18.844Z,97749.72
2022-12-17T06:33:04.507Z,97753.97
2022-12-17T06:35:49.774Z,97755.69
2022-12-17T06:38:35.048Z,97765.84
2022-12-17T06:41:20.316Z,97760.72
2022-12-17T06:44:05.694Z,97765.00
2022-12-17T06:46:51.109Z,97766.69
2022-12-17T06:49:36.402Z,97765.00
2022-12-17T06:52:21.588Z,97765.75
2022-12-17T06:55:06.861Z,97773.41
2022-12-17T06:57:52.129Z,97780.97
2022-12-17T07:00:37.475Z,97776.78
2022-12-17T07:03:23.007Z,97780.97
2022-12-17T07:06:08.122Z,97782.72
2022-12-17T07:08:53.453Z,97790.59
2022-12-17T07:11:39.347Z,97789.88
2022-12-17T07:14:24.761Z,97795.75
2022-12-17T07:17:10.114Z,97795.69
2022-12-17T07:19:55.107Z,97801.59
2022-12-17T07:22:40.347Z,97807.53
2022-12-17T07:25:25.650Z,97808.38
2022-12-17T07:28:11.432Z,97809.25
2022-12-17T07:30:59.691Z,97824.56
2022-12-17T07:33:44.848Z,97820.41
2022-12-17T07:36:29.995Z,97823.03
2022-12-17T07:39:17.078Z,97829.03
2022-12-17T07:42:02.304Z,97828.28
2022-12-17T07:44:47.593Z,97834.22
2022-12-17T07:47:32.812Z,97842.69
2022-12-17T07:50:18.102Z,97837.59
2022-12-17T07:53:03.358Z,97840.09
2022-12-17T07:55:48.626Z,97840.16
2022-12-17T07:58:33.919Z,97841.63
2022-12-17T08:01:19.685Z,97839.50
2022-12-17T08:04:04.868Z,97842.81
2022-12-17T08:06:50.120Z,97853.81
2022-12-17T08:09:35.414Z,97849.59
2022-12-17T08:12:20.614Z,97854.53
2022-12-17T08:15:05.823Z,97848.69
2022-12-17T08:17:50.982Z,97849.75
2022-12-17T08:20:36.369Z,97859.28
2022-12-17T08:23:22.291Z,97867.75
2022-12-17T08:26:07.604Z,97869.41
2022-12-17T08:28:52.982Z,97865.72
2022-12-17T08:31:38.926Z,97870.78
2022-12-17T08:34:24.074Z,97867.41
2022-12-17T08:37:09.613Z,97873.13
2022-12-17T08:39:54.820Z,97870.31
2022-12-17T08:42:40.060Z,97877.69
2022-12-17T08:45:25.334Z,97866.66
2022-12-17T08:48:10.779Z,97874.72
2022-12-17T08:50:56.277Z,97877.22
2022-12-17T08:53:41.997Z,97876.16
2022-12-17T08:56:27.704Z,97876.94
2022-12-17T08:59:12.861Z,97879.03
2022-12-17T09:01:58.096Z,97879.66
2022-12-17T09:04:43.367Z,97874.94
2022-12-17T09:07:28.469Z,97876.75
2022-12-17T09:10:13.553Z,97873.13
2022-12-17T09:13:04.172Z,97881.38
2022-12-17T09:15:50.023Z,97882.69
2022-12-17T09:18:38.673Z,97893.19
2022-12-17T09:21:23.963Z,97883.56
2022-12-17T09:24:09.117Z,97886.25
2022-12-17T09:26:54.311Z,97891.75
2022-12-17T09:29:39.453Z,97882.47
2022-12-17T09:32:24.998Z,97879.69
2022-12-17T09:35:10.368Z,97885.91
2022-12-17T09:37:55.577Z,97880.44
2022-12-17T09:40:41.843Z,97886.63
2022-12-17T09:43:47.524Z,97883.38
2022-12-17T09:46:33.059Z,97889.50
2022-12-17T09:49:18.203Z,97887.00
2022-12-17T09:52:03.268Z,97887.38
2022-12-17T09:54:55.103Z,97899.00
2022-12-17T09:57:43.342Z,97881.31
2022-12-17T10:00:35.632Z,97886.38
2022-12-17T10:03:21.516Z,97888.53
2022-12-17T10:06:06.774Z,97891.75
2022-12-17T10:08:52.106Z,97885.50
2022-12-17T10:11:41.966Z,97897.78
2022-12-17T10:14:37.878Z,97898.56
2022-12-17T10:17:23.080Z,97895.75
2022-12-17T10:20:08.536Z,97890.97
2022-12-17T10:23:00.706Z,97890.03
2022-12-17T10:25:45.973Z,97895.50
2022-12-17T10:28:32.152Z,97888.03
2022-12-17T10:31:17.378Z,97891.25
2022-12-17T10:34:02.746Z,97889.94
2022-12-17T10:36:47.950Z,97890.88
2022-12-17T10:39:40.358Z,97892.75
2022-12-17T10:42:42.664Z,97904.44
2022-12-17T10:45:47.169Z,97912.34
2022-12-17T10:48:39.466Z,97902.94
2022-12-17T10:51:24.534Z,97909.34
2022-12-17T10:54:10.145Z,97907.09
2022-12-17T10:56:55.864Z,97907.75
2022-12-17T11:00:01.725Z,97918.91
2022-12-17T11:02:47.497Z,97918.72
2022-12-17T11:05:59.253Z,97911.00
2022-12-17T11:08:45.077Z,97923.56
2022-12-17T11:11:30.357Z,97928.09
2022-12-17T11:14:15.542Z,97919.38
2022-12-17T11:17:02.452Z,97923.03
2022-12-17T11:19:55.462Z,97923.94
2022-12-17T11:22:40.616Z,97923.78
2022-12-17T11:25:28.220Z,97924.84
2022-12-17T11:28:17.342Z,97922.44
2022-12-17T11:31:05.733Z,97929.44
2022-12-17T11:34:02.037Z,97921.25
2022-12-17T11:36:52.773Z,97915.25
2022-12-17T11:39:38.134Z,97912.94
2022-12-17T11:42:26.262Z,97917.91
2022-12-17T11:45:20.666Z,97927.34
2022-12-17T11:48:07.324Z,97927.34
2022-12-17T11:50:55.500Z,97932.25
2022-12-17T11:53:44.768Z,97927.91
2022-12-17T11:56:29.818Z,97917.53
2022-12-17T11:59:18.608Z,97922.03
2022-12-17T12:02:07.028Z,97922.81
2022-12-17T12:04:55.519Z,97917.34
2022-12-17T12:07:53.040Z,97918.53
2022-12-17T12:10:43.546Z,97912.69
2022-12-17T12:13:28.820Z,97918.31
2022-12-17T12:16:17.654Z,97924.22
2022-12-17T12:19:15.249Z,97927.31
2022-12-17T12:22:21.303Z,97925.56
2022-12-17T12:25:27.579Z,97925.91
2022-12-17T12:28:25.309Z,97924.31
2022-12-17T12:31:10.544Z,97924.91
2022-12-17T12:34:07.425Z,97923.47
2022-12-17T12:36:52.566Z,97923.06
2022-12-17T12:39:39.281Z,97930.66
2022-12-17T12:42:26.626Z,97918.06
2022-12-17T12:45:21.063Z,97927.91
2022-12-17T12:48:20.659Z,97933.13
2022-12-17T12:51:05.973Z,97929.06
2022-12-17T12:53:51.239Z,97922.97
2022-12-17T12:56:46.184Z,97929.47
2022-12-17T12:59:43.234Z,97916.66
2022-12-17T13:02:40.795Z,97898.25
2022-12-17T13:05:34.402Z,97914.91
2022-12-17T13:08:18.966Z,97910.63
2022-12-17T13:10:46.990Z,97921.28
2022-12-17T13:13:16.495Z,97919.28
2022-12-17T13:15:45.237Z,97916.75
2022-12-17T13:18:17.799Z,97925.47
2022-12-17T13:20:44.296Z,97923.69
2022-12-17T13:23:14.812Z,97926.28
2022-12-17T13:25:41.471Z,97921.91
2022-12-17T13:28:31.043Z,97919.56
2022-12-17T13:31:01.238Z,97911.38
2022-12-17T13:33:30.761Z,97915.41
2022-12-17T13:35:57.199Z,97915.41
2022-12-17T13:38:27.116Z,97914.13
2022-12-17T13:41:09.583Z,97912.34
2022-12-17T13:43:43.434Z,97911.56
2022-12-17T13:46:19.680Z,97908.78
2022-12-17T13:48:52.062Z,97918.59
2022-12-17T13:51:19.882Z,97922.91
2022-12-17T13:54:12.756Z,97919.00
2022-12-17T13:56:39.214Z,97909.59
2022-12-17T13:59:09.627Z,97905.09
2022-12-17T14:01:44.231Z,97908.41
2022-12-17T14:04:18.720Z,97914.84
2022-12-17T14:06:45.258Z,97922.16
2022-12-17T14:09:17.308Z,97912.94
2022-12-17T14:12:02.493Z,97907.28
2022-12-17T14:14:30.478Z,97923.22
2022-12-17T14:16:57.047Z,97918.56
2022-12-17T14:19:24.166Z,97923.53
2022-12-17T14:21:50.828Z,97930.03
2022-12-17T14:24:17.434Z,97942.94
2022-12-17T14:26:47.870Z,97928.56
2022-12-17T14:29:14.527Z,97935.72
2022-12-17T14:31:41.273Z,97939.47
2022-12-17T14:34:11.244Z,97933.84
2022-12-17T14:36:39.584Z,97939.41
2022-12-17T14:39:11.327Z,97940.38
2022-12-17T14:41:56.634Z,97944.31
2022-12-17T14:44:27.656Z,97938.47
2022-12-17T14:47:08.639Z,97946.06
2022-12-17T14:49:35.203Z,97946.91
2022-12-17T14:52:11.325Z,97944.31
2022-12-17T14:54:37.858Z,97949.38
2022-12-17T14:57:05.337Z,97947.38
2022-12-17T14:59:32.157Z,97949.94
2022-12-17T15:02:00.732Z,97948.19
2022-12-17T15:04:27.555Z,97953.25
2022-12-17T15:06:55.038Z,97956.75
2022-12-17T15:09:21.617Z,97952.19
2022-12-17T15:11:49.206Z,97941.91
2022-12-17T15:14:15.766Z,97947.34
2022-12-17T15:16:42.423Z,97943.72
2022-12-17T15:19:09.275Z,97949.03
2022-12-17T15:21:36.038Z,97952.16
2022-12-17T15:24:02.743Z,97955.00
2022-12-17T15:26:29.428Z,97953.13
2022-12-17T15:28:56.093Z,97952.34
2022-12-17T15:31:25.552Z,97950.97
2022-12-17T15:33:53.069Z,97952.16
2022-12-17T15:36:20.179Z,97957.25
2022-12-17T15:38:47.042Z,97957.13
2022-12-17T15:41:32.364Z,97970.63
2022-12-17T15:43:59.224Z,97964.91
2022-12-17T15:46:26.455Z,97963.03
2022-12-17T15:48:53.279Z,97970.91
2022-12-17T15:51:21.356Z,97964.91
2022-12-17T15:53:48.508Z,97973.66
2022-12-17T15:56:18.558Z,97973.94
2022-12-17T15:58:45.317Z,97974.78
2022-12-17T16:01:12.114Z,97974.97
2022-12-17T16:03:38.754Z,97982.88
2022-12-17T16:06:05.899Z,97976.78
2022-12-17T16:08:32.563Z,97977.16
2022-12-17T16:10:59.306Z,97987.16
2022-12-17T16:13:25.972Z,97994.63
2022-12-17T16:16:03.675Z,97984.78
2022-12-17T16:18:31.020Z,97992.28
2022-12-17T16:21:04.560Z,97989.56
2022-12-17T16:23:31.394Z,97993.09
2022-12-17T16:25:58.910Z,97982.53
2022-12-17T16:28:26.155Z,97989.41
2022-12-17T16:30:58.908Z,97994.00
2022-12-17T16:33:25.567Z,97992.41
2022-12-17T16:35:52.732Z,97998.03
2022-12-17T16:38:19.482Z,98002.78
2022-12-17T16:40:46.890Z,98009.72
2022-12-17T16:43:13.648Z,98009.03
2022-12-17T16:45:48.060Z,98012.06
2022-12-17T16:48:15.140Z,98012.94
2022-12-17T16:50:41.908Z,98018.66
2022-12-17T16:53:09.552Z,98021.66
2022-12-17T16:55:43.487Z,98025.44
2022-12-17T16:58:10.359Z,98027.03
2022-12-17T17:00:37.488Z,98027.72
2022-12-17T17:03:04.954Z,98025.66
2022-12-17T17:05:35.066Z,98036.28
2022-12-17T17:08:02.087Z,98036.34
2022-12-17T17:10:29.922Z,98038.97
2022-12-17T17:12:57.154Z,98041.94
2022-12-17T17:15:24.273Z,98032.94
2022-12-17T17:17:54.789Z,98032.03
2022-12-17T17:20:22.855Z,98036.41
2022-12-17T17:22:50.179Z,98042.13
2022-12-17T17:25:17.034Z,98041.69
2022-12-17T17:27:43.710Z,98039.41
2022-12-17T17:30:10.928Z,98041.06
2022-12-17T17:32:37.943Z,98042.53
2022-12-17T17:35:05.917Z,98048.56
2022-12-17T17:37:32.846Z,98049.28
2022-12-17T17:39:59.512Z,98053.59
2022-12-17T17:42:26.200Z,98056.16
2022-12-17T17:44:53.030Z,98043.66
2022-12-17T17:47:19.898Z,98062.56
2022-12-17T17:49:46.654Z,98062.31
2022-12-17T17:52:13.743Z,98062.19
2022-12-17T17:54:40.868Z,98066.69
2022-12-17T17:57:08.015Z,98067.53
2022-12-17T17:59:35.000Z,98065.31
2022-12-17T18:02:02.486Z,98073.03
2022-12-17T18:04:32.020Z,98080.66
2022-12-17T18:09:45.633Z,98070.28
2022-12-17T18:12:31.047Z,98083.16
2022-12-17T18:15:15.425Z,98086.72
2022-12-17T18:17:45.284Z,98072.03
2022-12-17T18:20:12.216Z,98083.50
2022-12-17T18:22:39.184Z,98077.03
2022-12-17T18:25:06.253Z,98080.59
2022-12-17T18:27:33.077Z,98085.13
2022-12-17T18:29:59.864Z,98075.81
2022-12-17T18:32:26.728Z,98076.41
2022-12-17T18:37:35.481Z,98086.41
2022-12-17T18:40:02.143Z,98080.50
2022-12-17T18:42:47.666Z,98085.78
2022-12-17T18:45:14.700Z,98086.88
2022-12-17T18:47:42.903Z,98084.63
2022-12-17T18:50:10.795Z,98085.34
2022-12-17T18:52:38.585Z,98077.50
2022-12-17T18:55:05.882Z,98089.22
2022-12-17T18:57:32.742Z,98086.34
2022-12-17T19:00:02.439Z,98091.44
2022-12-17T19:02:30.521Z,98090.75
2022-12-17T19:04:57.628Z,98085.94
2022-12-17T19:07:25.121Z,98093.03
2022-12-17T19:09:52.134Z,98090.84
2022-12-17T19:12:19.183Z,98092.28
2022-12-17T19:14:45.962Z,98095.75
2022-12-17T19:17:12.666Z,98094.19
2022-12-17T19:19:39.599Z,98098.38
2022-12-17T19:22:06.523Z,98100.94
2022-12-17T19:24:33.544Z,98104.72
2022-12-17T19:27:00.842Z,98108.66
2022-12-17T19:29:28.322Z,98106.69
2022-12-17T19:31:55.447Z,98103.28
2022-12-17T19:34:22.876Z,98096.66
2022-12-17T19:36:49.921Z,98097.41
2022-12-17T19:39:18.125Z,98094.84
2022-12-17T19:41:45.249Z,98096.34
2022-12-17T19:44:13.376Z,98100.75
2022-12-17T19:46:40.178Z,98092.63
2022-12-17T19:49:07.921Z,98093.50
2022-12-17T19:51:34.835Z,98092.91
2022-12-17T19:54:08.533Z,98090.06
2022-12-17T19:56:36.135Z,98083.06
2022-12-17T19:59:04.682Z,98091.78
2022-12-17T20:01:32.499Z,98094.16
2022-12-17T20:03:59.705Z,98103.22
2022-12-17T20:06:27.725Z,98104.44
2022-12-17T20:08:54.659Z,98109.94
2022-12-17T20:11:33.526Z,98113.31
2022-12-17T20:14:00.015Z,98110.25
2022-12-17T20:16:27.297Z,98115.53
2022-12-17T20:18:54.696Z,98124.06
2022-12-17T20:21:21.346Z,98115.44
2022-12-17T20:23:49.208Z,98118.34
2022-12-17T20:26:17.175Z,98117.50
2022-12-17T20:28:44.439Z,98111.38
2022-12-17T20:31:11.433Z,98110.19
2022-12-17T20:33:38.759Z,98117.06
2022-12-17T20:36:09.963Z,98121.69
2022-12-17T20:38:37.065Z,98132.00
2022-12-17T20:41:17.534Z,98126.09
2022-12-17T20:43:44.328Z,98126.75
2022-12-17T20:46:10.997Z,98122.81
2022-12-17T20:48:39.226Z,98121.06
2022-12-17T20:51:07.152Z,98123.34
2022-12-17T20:53:34.682Z,98120.91
2022-12-17T20:56:02.536Z,98126.81
2022-12-17T20:58:29.360Z,98121.25
2022-12-17T21:01:03.167Z,98116.97
2022-12-17T21:03:29.995Z,98123.47
2022-12-17T21:05:56.856Z,98128.72
2022-12-17T21:08:23.965Z,98135.78
2022-12-17T21:10:55.711Z,98139.00
2022-12-17T21:13:31.444Z,98145.75
2022-12-17T21:15:59.495Z,98134.47
2022-12-17T21:18:26.671Z,98141.94
2022-12-17T21:20:57.690Z,98132.06
2022-12-17T21:23:24.573Z,98140.09
2022-12-17T21:26:02.263Z,98131.94
2022-12-17T21:28:30.150Z,98148.31
2022-12-17T21:30:57.279Z,98147.91
2022-12-17T21:33:24.097Z,98139.72
2022-12-17T21:35:51.131Z,98141.81
2022-12-17T21:38:17.775Z,98145.63
2022-12-17T21:40:44.552Z,98155.41
2022-12-17T21:43:11.325Z,98148.53
2022-12-17T21:45:38.954Z,98158.47
2022-12-17T21:48:06.124Z,98156.94
2022-12-17T21:50:43.481Z,98159.81
2022-12-17T21:53:11.054Z,98165.41
2022-12-17T21:55:37.877Z,98153.66
2022-12-17T21:58:06.892Z,98156.69
2022-12-17T22:00:33.601Z,98167.41
2022-12-17T22:03:01.841Z,98151.22
2022-12-17T22:05:28.842Z,98149.06
2022-12-17T22:07:55.631Z,98155.06
2022-12-17T22:10:37.745Z,98143.19
2022-12-17T22:13:28.660Z,98162.38
2022-12-17T22:15:55.666Z,98149.69
2022-12-17T22:18:22.487Z,98161.16
2022-12-17T22:21:01.637Z,98157.53
2022-12-17T22:23:28.236Z,98162.06
2022-12-17T22:25:57.301Z,98158.50
2022-12-17T22:28:24.101Z,98164.59
2022-12-17T22:31:10.959Z,98149.38
2022-12-17T22:34:24.689Z,98170.47
2022-12-17T22:39:15.526Z,98160.06
2022-12-17T22:43:13.489Z,98172.31
2022-12-17T22:44:42.078Z,98165.47
2022-12-17T22:45:10.637Z,98173.16
2022-12-17T22:47:39.020Z,98155.28
2022-12-17T22:50:06.061Z,98170.47
2022-12-17T22:52:33.652Z,98155.78
2022-12-17T22:55:00.822Z,98168.09
2022-12-17T22:57:36.058Z,98163.31
2022-12-17T23:00:07.683Z,98167.09
2022-12-17T23:02:34.485Z,98169.72
2022-12-17T23:05:04.353Z,98176.16
2022-12-17T23:07:32.059Z,98183.19
2022-12-17T23:09:59.042Z,98177.31
2022-12-17T23:12:44.411Z,98180.38
2022-12-17T23:15:11.463Z,98184.25
2022-12-17T23:17:41.370Z,98194.66
2022-12-17T23:20:11.229Z,98181.28
2022-12-17T23:22:40.480Z,98190.91
2022-12-17T23:25:09.650Z,98191.09
2022-12-17T23:30:38.773Z,98194.97
2022-12-17T23:33:16.890Z,98193.91
2022-12-17T23:35:48.219Z,98196.09
2022-12-17T23:38:15.246Z,98213.97
2022-12-17T23:40:42.850Z,98210.94
2022-12-17T23:43:12.971Z,98216.09
2022-12-17T23:45:43.942Z,98214.50
2022-12-17T23:48:10.847Z,98216.72
2022-12-17T23:50:37.572Z,98199.81
2022-12-17T23:53:04.240Z,98211.69
2022-12-17T23:55:35.635Z,98208.25
2022-12-17T23:58:03.735Z,98195.19
